sensor_id;sensor_type;location;lat;lon;timestamp;temperature;humidity
11132;DHT22;5620;53.570;9.718;2024-02-16T00:01:29;12.80;1.00
11132;DHT22;5620;53.570;9.718;2024-02-16T00:03:55;12.80;1.00
11132;DHT22;5620;53.570;9.718;2024-02-16T00:06:20;12.80;1.00
11132;DHT22;5620;53.570;9.718;2024-02-16T00:08:46;12.80;1.00
11132;DHT22;5620;53.570;9.718;2024-02-16T00:11:11;12.80;1.00
11132;DHT22;5620;53.570;9.718;2024-02-16T00:13:37;12.80;1.00
11132;DHT22;5620;53.570;9.718;2024-02-16T00:16:02;12.80;1.00
11132;DHT22;5620;53.570;9.718;2024-02-16T00:18:28;12.80;1.00
11132;DHT22;5620;53.570;9.718;2024-02-16T00:20:53;12.80;1.00
11132;DHT22;5620;53.570;9.718;2024-02-16T00:23:19;12.80;1.00
11132;DHT22;5620;53.570;9.718;2024-02-16T00:25:45;12.80;1.00
11132;DHT22;5620;53.570;9.718;2024-02-16T00:28:10;12.70;99.90
11132;DHT22;5620;53.570;9.718;2024-02-16T00:30:36;12.70;99.90
11132;DHT22;5620;53.570;9.718;2024-02-16T00:33:01;12.60;99.90
11132;DHT22;5620;53.570;9.718;2024-02-16T00:35:27;12.60;99.90
11132;DHT22;5620;53.570;9.718;2024-02-16T00:37:52;12.50;99.90
11132;DHT22;5620;53.570;9.718;2024-02-16T00:40:18;12.50;99.90
11132;DHT22;5620;53.570;9.718;2024-02-16T00:42:43;12.40;1.00
11132;DHT22;5620;53.570;9.718;2024-02-16T00:45:09;12.40;1.00
11132;DHT22;5620;53.570;9.718;2024-02-16T00:47:34;12.40;1.00
11132;DHT22;5620;53.570;9.718;2024-02-16T00:50:00;12.50;1.00
11132;DHT22;5620;53.570;9.718;2024-02-16T00:52:25;12.50;1.00
11132;DHT22;5620;53.570;9.718;2024-02-16T00:54:51;12.50;1.00
11132;DHT22;5620;53.570;9.718;2024-02-16T00:57:16;12.50;1.00
11132;DHT22;5620;53.570;9.718;2024-02-16T00:59:42;12.40;99.90
11132;DHT22;5620;53.570;9.718;2024-02-16T01:02:08;12.40;99.90
11132;DHT22;5620;53.570;9.718;2024-02-16T01:04:33;12.40;99.90
11132;DHT22;5620;53.570;9.718;2024-02-16T01:06:59;12.30;99.90
11132;DHT22;5620;53.570;9.718;2024-02-16T01:09:25;12.30;99.90
11132;DHT22;5620;53.570;9.718;2024-02-16T01:11:50;12.30;99.90
11132;DHT22;5620;53.570;9.718;2024-02-16T01:14:16;12.20;99.90
11132;DHT22;5620;53.570;9.718;2024-02-16T01:16:42;12.20;99.90
11132;DHT22;5620;53.570;9.718;2024-02-16T01:19:07;12.20;1.00
11132;DHT22;5620;53.570;9.718;2024-02-16T01:21:33;12.20;99.90
11132;DHT22;5620;53.570;9.718;2024-02-16T01:23:59;12.20;1.00
11132;DHT22;5620;53.570;9.718;2024-02-16T01:26:24;12.20;1.00
11132;DHT22;5620;53.570;9.718;2024-02-16T01:28:50;12.20;1.00
11132;DHT22;5620;53.570;9.718;2024-02-16T01:31:15;12.20;1.00
11132;DHT22;5620;53.570;9.718;2024-02-16T01:33:41;12.20;1.00
11132;DHT22;5620;53.570;9.718;2024-02-16T01:36:06;12.20;1.00
11132;DHT22;5620;53.570;9.718;2024-02-16T01:38:32;12.20;1.00
11132;DHT22;5620;53.570;9.718;2024-02-16T01:40:57;12.20;99.90
11132;DHT22;5620;53.570;9.718;2024-02-16T01:43:23;12.20;99.90
11132;DHT22;5620;53.570;9.718;2024-02-16T01:45:48;12.20;99.90
11132;DHT22;5620;53.570;9.718;2024-02-16T01:48:14;12.20;99.90
11132;DHT22;5620;53.570;9.718;2024-02-16T01:50:43;12.10;99.90
11132;DHT22;5620;53.570;9.718;2024-02-16T01:53:10;12.20;99.90
11132;DHT22;5620;53.570;9.718;2024-02-16T01:55:36;12.20;99.90
11132;DHT22;5620;53.570;9.718;2024-02-16T01:58:03;12.20;99.90
11132;DHT22;5620;53.570;9.718;2024-02-16T02:00:29;12.20;99.90
11132;DHT22;5620;53.570;9.718;2024-02-16T02:02:54;12.20;99.90
11132;DHT22;5620;53.570;9.718;2024-02-16T02:05:20;12.20;99.90
11132;DHT22;5620;53.570;9.718;2024-02-16T02:07:46;12.20;99.90
11132;DHT22;5620;53.570;9.718;2024-02-16T02:10:11;12.20;99.90
11132;DHT22;5620;53.570;9.718;2024-02-16T02:12:37;12.20;99.90
11132;DHT22;5620;53.570;9.718;2024-02-16T02:15:03;12.20;99.90
11132;DHT22;5620;53.570;9.718;2024-02-16T02:17:28;12.20;99.90
11132;DHT22;5620;53.570;9.718;2024-02-16T02:19:54;12.20;99.90
11132;DHT22;5620;53.570;9.718;2024-02-16T02:22:20;12.20;99.90
11132;DHT22;5620;53.570;9.718;2024-02-16T02:24:46;12.20;99.90
11132;DHT22;5620;53.570;9.718;2024-02-16T02:27:13;12.20;99.90
11132;DHT22;5620;53.570;9.718;2024-02-16T02:29:39;12.20;99.90
11132;DHT22;5620;53.570;9.718;2024-02-16T02:32:05;12.20;99.90
11132;DHT22;5620;53.570;9.718;2024-02-16T02:34:31;12.20;99.90
11132;DHT22;5620;53.570;9.718;2024-02-16T02:36:57;12.20;99.90
11132;DHT22;5620;53.570;9.718;2024-02-16T02:39:22;12.20;99.90
11132;DHT22;5620;53.570;9.718;2024-02-16T02:41:48;12.20;99.90
11132;DHT22;5620;53.570;9.718;2024-02-16T02:44:13;12.20;99.90
11132;DHT22;5620;53.570;9.718;2024-02-16T02:46:39;12.20;99.90
11132;DHT22;5620;53.570;9.718;2024-02-16T02:49:04;12.20;99.90
11132;DHT22;5620;53.570;9.718;2024-02-16T02:51:30;12.30;99.90
11132;DHT22;5620;53.570;9.718;2024-02-16T02:53:55;12.30;99.90
11132;DHT22;5620;53.570;9.718;2024-02-16T02:56:21;12.30;99.90
11132;DHT22;5620;53.570;9.718;2024-02-16T02:58:46;12.30;99.90
11132;DHT22;5620;53.570;9.718;2024-02-16T03:01:13;12.30;99.90
11132;DHT22;5620;53.570;9.718;2024-02-16T03:03:41;12.30;99.90
11132;DHT22;5620;53.570;9.718;2024-02-16T03:06:07;12.40;99.90
11132;DHT22;5620;53.570;9.718;2024-02-16T03:08:33;12.40;82.30
11132;DHT22;5620;53.570;9.718;2024-02-16T03:10:59;12.40;46.10
11132;DHT22;5620;53.570;9.718;2024-02-16T03:13:24;12.40;23.80
11132;DHT22;5620;53.570;9.718;2024-02-16T03:15:50;12.40;10.80
11132;DHT22;5620;53.570;9.718;2024-02-16T03:18:15;12.40;1.00
11132;DHT22;5620;53.570;9.718;2024-02-16T03:20:41;12.40;1.00
11132;DHT22;5620;53.570;9.718;2024-02-16T03:23:06;12.40;1.00
11132;DHT22;5620;53.570;9.718;2024-02-16T03:25:32;12.40;1.00
11132;DHT22;5620;53.570;9.718;2024-02-16T03:27:57;12.30;1.00
11132;DHT22;5620;53.570;9.718;2024-02-16T03:30:23;12.30;1.00
11132;DHT22;5620;53.570;9.718;2024-02-16T03:32:49;12.30;1.00
11132;DHT22;5620;53.570;9.718;2024-02-16T03:35:14;12.30;1.00
11132;DHT22;5620;53.570;9.718;2024-02-16T03:37:40;12.30;1.00
11132;DHT22;5620;53.570;9.718;2024-02-16T03:40:06;12.30;1.00
11132;DHT22;5620;53.570;9.718;2024-02-16T03:42:32;12.30;1.00
11132;DHT22;5620;53.570;9.718;2024-02-16T03:44:57;12.30;1.00
11132;DHT22;5620;53.570;9.718;2024-02-16T03:47:23;12.30;1.00
11132;DHT22;5620;53.570;9.718;2024-02-16T03:49:48;12.30;1.00
11132;DHT22;5620;53.570;9.718;2024-02-16T03:52:14;12.30;1.00
11132;DHT22;5620;53.570;9.718;2024-02-16T03:54:39;12.30;99.90
11132;DHT22;5620;53.570;9.718;2024-02-16T03:57:05;12.30;99.90
11132;DHT22;5620;53.570;9.718;2024-02-16T03:59:30;12.30;99.90
11132;DHT22;5620;53.570;9.718;2024-02-16T04:01:56;12.30;99.90
11132;DHT22;5620;53.570;9.718;2024-02-16T04:04:21;12.30;99.90
11132;DHT22;5620;53.570;9.718;2024-02-16T04:06:47;12.30;99.90
11132;DHT22;5620;53.570;9.718;2024-02-16T04:09:12;12.30;99.90
11132;DHT22;5620;53.570;9.718;2024-02-16T04:11:38;12.30;99.90
11132;DHT22;5620;53.570;9.718;2024-02-16T04:14:03;12.30;99.90
11132;DHT22;5620;53.570;9.718;2024-02-16T04:16:29;12.20;99.90
11132;DHT22;5620;53.570;9.718;2024-02-16T04:18:54;12.30;99.90
11132;DHT22;5620;53.570;9.718;2024-02-16T04:21:20;12.20;99.90
11132;DHT22;5620;53.570;9.718;2024-02-16T04:23:45;12.20;84.40
11132;DHT22;5620;53.570;9.718;2024-02-16T04:26:11;12.20;29.30
11132;DHT22;5620;53.570;9.718;2024-02-16T04:28:37;12.20;28.60
11132;DHT22;5620;53.570;9.718;2024-02-16T04:31:02;12.20;2.20
11132;DHT22;5620;53.570;9.718;2024-02-16T04:33:28;12.20;1.00
11132;DHT22;5620;53.570;9.718;2024-02-16T04:35:53;12.20;1.00
11132;DHT22;5620;53.570;9.718;2024-02-16T04:38:19;12.10;1.00
11132;DHT22;5620;53.570;9.718;2024-02-16T04:40:44;12.10;1.00
11132;DHT22;5620;53.570;9.718;2024-02-16T04:43:10;12.10;1.00
11132;DHT22;5620;53.570;9.718;2024-02-16T04:45:35;12.00;1.00
11132;DHT22;5620;53.570;9.718;2024-02-16T04:48:05;12.00;1.00
11132;DHT22;5620;53.570;9.718;2024-02-16T04:50:34;12.00;1.00
11132;DHT22;5620;53.570;9.718;2024-02-16T04:53:01;11.90;1.00
11132;DHT22;5620;53.570;9.718;2024-02-16T04:55:26;11.90;1.00
11132;DHT22;5620;53.570;9.718;2024-02-16T04:57:52;11.90;1.00
11132;DHT22;5620;53.570;9.718;2024-02-16T05:00:18;11.90;1.00
11132;DHT22;5620;53.570;9.718;2024-02-16T05:02:43;11.80;1.00
11132;DHT22;5620;53.570;9.718;2024-02-16T05:05:09;11.80;1.00
11132;DHT22;5620;53.570;9.718;2024-02-16T05:07:34;11.80;1.00
11132;DHT22;5620;53.570;9.718;2024-02-16T05:10:00;11.70;1.00
11132;DHT22;5620;53.570;9.718;2024-02-16T05:12:25;11.70;1.00
11132;DHT22;5620;53.570;9.718;2024-02-16T05:14:51;11.70;1.00
11132;DHT22;5620;53.570;9.718;2024-02-16T05:17:18;11.60;1.00
11132;DHT22;5620;53.570;9.718;2024-02-16T05:19:43;11.70;1.00
11132;DHT22;5620;53.570;9.718;2024-02-16T05:22:09;11.70;1.00
11132;DHT22;5620;53.570;9.718;2024-02-16T05:24:35;11.70;1.00
11132;DHT22;5620;53.570;9.718;2024-02-16T05:27:01;11.70;1.00
11132;DHT22;5620;53.570;9.718;2024-02-16T05:29:26;11.70;1.00
11132;DHT22;5620;53.570;9.718;2024-02-16T05:31:52;11.70;1.00
11132;DHT22;5620;53.570;9.718;2024-02-16T05:34:18;11.70;1.00
11132;DHT22;5620;53.570;9.718;2024-02-16T05:36:43;11.70;1.00
11132;DHT22;5620;53.570;9.718;2024-02-16T05:39:09;11.70;1.00
11132;DHT22;5620;53.570;9.718;2024-02-16T05:41:34;11.70;1.00
11132;DHT22;5620;53.570;9.718;2024-02-16T05:44:00;11.70;1.00
11132;DHT22;5620;53.570;9.718;2024-02-16T05:46:25;11.60;1.00
11132;DHT22;5620;53.570;9.718;2024-02-16T05:48:51;11.60;1.00
11132;DHT22;5620;53.570;9.718;2024-02-16T05:51:16;11.60;1.00
11132;DHT22;5620;53.570;9.718;2024-02-16T05:53:42;11.50;1.00
11132;DHT22;5620;53.570;9.718;2024-02-16T05:56:08;11.40;1.00
11132;DHT22;5620;53.570;9.718;2024-02-16T05:58:33;11.40;1.00
11132;DHT22;5620;53.570;9.718;2024-02-16T06:00:59;11.40;1.00
11132;DHT22;5620;53.570;9.718;2024-02-16T06:03:25;11.30;1.00
11132;DHT22;5620;53.570;9.718;2024-02-16T06:05:50;11.20;1.00
11132;DHT22;5620;53.570;9.718;2024-02-16T06:08:16;11.20;1.00
11132;DHT22;5620;53.570;9.718;2024-02-16T06:10:41;11.20;1.00
11132;DHT22;5620;53.570;9.718;2024-02-16T06:13:07;11.10;1.00
11132;DHT22;5620;53.570;9.718;2024-02-16T06:15:33;11.10;1.00
11132;DHT22;5620;53.570;9.718;2024-02-16T06:17:59;11.00;1.00
11132;DHT22;5620;53.570;9.718;2024-02-16T06:20:25;10.90;1.00
11132;DHT22;5620;53.570;9.718;2024-02-16T06:22:51;11.00;1.00
11132;DHT22;5620;53.570;9.718;2024-02-16T06:25:16;10.90;26.40
11132;DHT22;5620;53.570;9.718;2024-02-16T06:27:42;10.90;1.00
11132;DHT22;5620;53.570;9.718;2024-02-16T06:30:07;10.80;42.40
11132;DHT22;5620;53.570;9.718;2024-02-16T06:32:33;10.80;90.00
11132;DHT22;5620;53.570;9.718;2024-02-16T06:34:59;10.70;99.90
11132;DHT22;5620;53.570;9.718;2024-02-16T06:37:24;10.70;99.90
11132;DHT22;5620;53.570;9.718;2024-02-16T06:39:50;10.70;99.90
11132;DHT22;5620;53.570;9.718;2024-02-16T06:42:15;10.70;99.90
11132;DHT22;5620;53.570;9.718;2024-02-16T06:44:41;10.70;99.90
11132;DHT22;5620;53.570;9.718;2024-02-16T06:47:07;10.70;99.90
11132;DHT22;5620;53.570;9.718;2024-02-16T06:49:32;10.70;99.90
11132;DHT22;5620;53.570;9.718;2024-02-16T06:51:58;10.70;99.90
11132;DHT22;5620;53.570;9.718;2024-02-16T06:54:23;10.70;99.90
11132;DHT22;5620;53.570;9.718;2024-02-16T06:56:49;10.70;99.90
11132;DHT22;5620;53.570;9.718;2024-02-16T06:59:14;10.80;1.00
11132;DHT22;5620;53.570;9.718;2024-02-16T07:01:40;10.90;1.00
11132;DHT22;5620;53.570;9.718;2024-02-16T07:04:06;11.00;1.00
11132;DHT22;5620;53.570;9.718;2024-02-16T07:06:31;11.10;1.00
11132;DHT22;5620;53.570;9.718;2024-02-16T07:08:57;11.10;1.00
11132;DHT22;5620;53.570;9.718;2024-02-16T07:11:22;11.20;99.90
11132;DHT22;5620;53.570;9.718;2024-02-16T07:13:48;11.20;99.90
11132;DHT22;5620;53.570;9.718;2024-02-16T07:16:13;11.30;99.90
11132;DHT22;5620;53.570;9.718;2024-02-16T07:18:39;11.20;90.60
11132;DHT22;5620;53.570;9.718;2024-02-16T07:21:04;11.20;99.90
11132;DHT22;5620;53.570;9.718;2024-02-16T07:23:30;11.30;99.90
11132;DHT22;5620;53.570;9.718;2024-02-16T07:25:56;11.40;1.00
11132;DHT22;5620;53.570;9.718;2024-02-16T07:28:24;11.60;1.00
11132;DHT22;5620;53.570;9.718;2024-02-16T07:30:50;11.70;1.00
11132;DHT22;5620;53.570;9.718;2024-02-16T07:33:16;11.90;99.90
11132;DHT22;5620;53.570;9.718;2024-02-16T07:35:42;12.00;36.40
11132;DHT22;5620;53.570;9.718;2024-02-16T07:38:07;12.00;1.00
11132;DHT22;5620;53.570;9.718;2024-02-16T07:40:33;12.10;1.00
11132;DHT22;5620;53.570;9.718;2024-02-16T07:42:59;12.10;99.90
11132;DHT22;5620;53.570;9.718;2024-02-16T07:45:24;12.10;99.90
11132;DHT22;5620;53.570;9.718;2024-02-16T07:47:50;12.20;99.90
11132;DHT22;5620;53.570;9.718;2024-02-16T07:50:20;12.30;99.90
11132;DHT22;5620;53.570;9.718;2024-02-16T07:52:46;12.40;1.00
11132;DHT22;5620;53.570;9.718;2024-02-16T07:55:11;12.50;1.00
11132;DHT22;5620;53.570;9.718;2024-02-16T07:57:37;12.70;1.00
11132;DHT22;5620;53.570;9.718;2024-02-16T08:00:04;13.00;99.90
11132;DHT22;5620;53.570;9.718;2024-02-16T08:02:29;13.10;1.00
11132;DHT22;5620;53.570;9.718;2024-02-16T08:04:55;13.30;1.00
11132;DHT22;5620;53.570;9.718;2024-02-16T08:07:20;13.40;99.90
11132;DHT22;5620;53.570;9.718;2024-02-16T08:09:46;13.50;69.50
11132;DHT22;5620;53.570;9.718;2024-02-16T08:12:13;13.50;1.00
11132;DHT22;5620;53.570;9.718;2024-02-16T08:14:39;13.60;1.00
11132;DHT22;5620;53.570;9.718;2024-02-16T08:17:04;13.60;1.00
11132;DHT22;5620;53.570;9.718;2024-02-16T08:19:35;13.70;99.90
11132;DHT22;5620;53.570;9.718;2024-02-16T08:22:05;13.80;99.90
11132;DHT22;5620;53.570;9.718;2024-02-16T08:24:34;13.90;99.90
11132;DHT22;5620;53.570;9.718;2024-02-16T08:27:00;14.00;9.90
11132;DHT22;5620;53.570;9.718;2024-02-16T08:29:26;14.00;1.00
11132;DHT22;5620;53.570;9.718;2024-02-16T08:31:52;14.00;99.90
11132;DHT22;5620;53.570;9.718;2024-02-16T08:34:18;14.00;99.90
11132;DHT22;5620;53.570;9.718;2024-02-16T08:36:52;14.00;24.40
11132;DHT22;5620;53.570;9.718;2024-02-16T08:39:18;14.00;1.00
11132;DHT22;5620;53.570;9.718;2024-02-16T08:41:43;14.10;1.00
11132;DHT22;5620;53.570;9.718;2024-02-16T08:44:09;14.10;99.90
11132;DHT22;5620;53.570;9.718;2024-02-16T08:46:35;14.10;99.90
11132;DHT22;5620;53.570;9.718;2024-02-16T08:49:04;14.20;99.90
11132;DHT22;5620;53.570;9.718;2024-02-16T08:51:32;14.30;99.90
11132;DHT22;5620;53.570;9.718;2024-02-16T08:53:57;14.40;99.90
11132;DHT22;5620;53.570;9.718;2024-02-16T08:56:23;14.50;1.00
11132;DHT22;5620;53.570;9.718;2024-02-16T08:58:48;14.60;1.00
11132;DHT22;5620;53.570;9.718;2024-02-16T09:01:14;14.70;99.90
11132;DHT22;5620;53.570;9.718;2024-02-16T09:03:39;14.70;99.90
11132;DHT22;5620;53.570;9.718;2024-02-16T09:06:05;14.70;90.00
11132;DHT22;5620;53.570;9.718;2024-02-16T09:08:30;14.70;1.00
11132;DHT22;5620;53.570;9.718;2024-02-16T09:10:56;14.70;1.00
11132;DHT22;5620;53.570;9.718;2024-02-16T09:13:21;14.80;1.00
11132;DHT22;5620;53.570;9.718;2024-02-16T09:15:47;14.80;1.00
11132;DHT22;5620;53.570;9.718;2024-02-16T09:18:12;14.90;1.00
11132;DHT22;5620;53.570;9.718;2024-02-16T09:20:38;14.90;99.90
11132;DHT22;5620;53.570;9.718;2024-02-16T09:23:03;15.00;99.90
11132;DHT22;5620;53.570;9.718;2024-02-16T09:25:29;15.00;99.90
11132;DHT22;5620;53.570;9.718;2024-02-16T09:27:55;15.10;99.90
11132;DHT22;5620;53.570;9.718;2024-02-16T09:30:20;15.20;63.60
11132;DHT22;5620;53.570;9.718;2024-02-16T09:32:46;15.20;1.00
11132;DHT22;5620;53.570;9.718;2024-02-16T09:35:11;15.20;1.00
11132;DHT22;5620;53.570;9.718;2024-02-16T09:37:39;15.20;1.00
11132;DHT22;5620;53.570;9.718;2024-02-16T09:40:05;15.30;1.00
11132;DHT22;5620;53.570;9.718;2024-02-16T09:42:32;15.40;1.00
11132;DHT22;5620;53.570;9.718;2024-02-16T09:45:01;15.50;1.00
11132;DHT22;5620;53.570;9.718;2024-02-16T09:47:27;15.70;99.90
11132;DHT22;5620;53.570;9.718;2024-02-16T09:49:54;15.80;99.90
11132;DHT22;5620;53.570;9.718;2024-02-16T09:52:19;16.00;99.90
11132;DHT22;5620;53.570;9.718;2024-02-16T09:54:45;16.10;99.90
11132;DHT22;5620;53.570;9.718;2024-02-16T09:57:10;16.20;99.90
11132;DHT22;5620;53.570;9.718;2024-02-16T09:59:36;16.30;60.60
11132;DHT22;5620;53.570;9.718;2024-02-16T10:02:03;16.30;1.00
11132;DHT22;5620;53.570;9.718;2024-02-16T10:04:29;16.40;1.00
11132;DHT22;5620;53.570;9.718;2024-02-16T10:06:54;16.50;1.00
11132;DHT22;5620;53.570;9.718;2024-02-16T10:09:24;16.40;1.00
11132;DHT22;5620;53.570;9.718;2024-02-16T10:11:50;16.40;1.00
11132;DHT22;5620;53.570;9.718;2024-02-16T10:14:15;16.30;1.00
11132;DHT22;5620;53.570;9.718;2024-02-16T10:16:41;16.20;99.90
11132;DHT22;5620;53.570;9.718;2024-02-16T10:19:07;16.10;99.90
11132;DHT22;5620;53.570;9.718;2024-02-16T10:21:33;16.00;99.90
11132;DHT22;5620;53.570;9.718;2024-02-16T10:24:06;16.00;99.90
11132;DHT22;5620;53.570;9.718;2024-02-16T10:26:32;16.00;99.90
11132;DHT22;5620;53.570;9.718;2024-02-16T10:28:58;16.00;99.90
11132;DHT22;5620;53.570;9.718;2024-02-16T10:31:24;16.00;99.90
11132;DHT22;5620;53.570;9.718;2024-02-16T10:33:50;16.00;99.90
11132;DHT22;5620;53.570;9.718;2024-02-16T10:36:16;16.10;99.90
11132;DHT22;5620;53.570;9.718;2024-02-16T10:38:42;16.30;99.90
11132;DHT22;5620;53.570;9.718;2024-02-16T10:41:09;16.40;99.90
11132;DHT22;5620;53.570;9.718;2024-02-16T10:43:34;16.60;99.90
11132;DHT22;5620;53.570;9.718;2024-02-16T10:46:00;16.80;99.90
11132;DHT22;5620;53.570;9.718;2024-02-16T10:48:26;17.00;99.90
11132;DHT22;5620;53.570;9.718;2024-02-16T10:50:53;17.20;99.90
11132;DHT22;5620;53.570;9.718;2024-02-16T10:53:27;17.60;99.90
11132;DHT22;5620;53.570;9.718;2024-02-16T10:55:53;17.90;99.90
11132;DHT22;5620;53.570;9.718;2024-02-16T10:58:18;17.80;66.30
11132;DHT22;5620;53.570;9.718;2024-02-16T11:00:55;17.80;57.50
11132;DHT22;5620;53.570;9.718;2024-02-16T11:03:27;17.80;27.10
11132;DHT22;5620;53.570;9.718;2024-02-16T11:05:53;17.90;18.60
11132;DHT22;5620;53.570;9.718;2024-02-16T11:08:21;18.00;1.00
11132;DHT22;5620;53.570;9.718;2024-02-16T11:11:01;18.20;1.00
11132;DHT22;5620;53.570;9.718;2024-02-16T11:13:31;18.40;1.00
11132;DHT22;5620;53.570;9.718;2024-02-16T11:15:58;18.60;1.00
11132;DHT22;5620;53.570;9.718;2024-02-16T11:18:24;18.70;1.00
11132;DHT22;5620;53.570;9.718;2024-02-16T11:20:49;18.60;1.00
11132;DHT22;5620;53.570;9.718;2024-02-16T11:23:15;18.60;1.00
11132;DHT22;5620;53.570;9.718;2024-02-16T11:25:50;18.40;1.00
11132;DHT22;5620;53.570;9.718;2024-02-16T11:28:16;18.20;1.00
11132;DHT22;5620;53.570;9.718;2024-02-16T11:30:42;17.90;1.00
11132;DHT22;5620;53.570;9.718;2024-02-16T11:33:11;17.60;1.00
11132;DHT22;5620;53.570;9.718;2024-02-16T11:35:37;17.30;1.00
11132;DHT22;5620;53.570;9.718;2024-02-16T11:38:03;17.10;1.00
11132;DHT22;5620;53.570;9.718;2024-02-16T11:40:29;16.90;1.00
11132;DHT22;5620;53.570;9.718;2024-02-16T11:43:01;17.00;1.00
11132;DHT22;5620;53.570;9.718;2024-02-16T11:45:27;17.00;1.00
11132;DHT22;5620;53.570;9.718;2024-02-16T11:48:06;17.20;1.00
11132;DHT22;5620;53.570;9.718;2024-02-16T11:50:32;17.60;1.00
11132;DHT22;5620;53.570;9.718;2024-02-16T11:52:58;18.10;1.00
11132;DHT22;5620;53.570;9.718;2024-02-16T11:55:23;18.70;1.00
11132;DHT22;5620;53.570;9.718;2024-02-16T11:57:49;19.30;99.90
11132;DHT22;5620;53.570;9.718;2024-02-16T12:00:15;19.60;99.90
11132;DHT22;5620;53.570;9.718;2024-02-16T12:02:40;19.50;99.90
11132;DHT22;5620;53.570;9.718;2024-02-16T12:05:06;19.20;99.90
11132;DHT22;5620;53.570;9.718;2024-02-16T12:07:32;18.90;99.90
11132;DHT22;5620;53.570;9.718;2024-02-16T12:09:58;18.70;99.90
11132;DHT22;5620;53.570;9.718;2024-02-16T12:12:25;18.60;99.90
11132;DHT22;5620;53.570;9.718;2024-02-16T12:14:52;18.60;99.90
11132;DHT22;5620;53.570;9.718;2024-02-16T12:17:17;19.00;99.90
11132;DHT22;5620;53.570;9.718;2024-02-16T12:19:46;19.60;99.90
11132;DHT22;5620;53.570;9.718;2024-02-16T12:22:17;19.80;99.90
11132;DHT22;5620;53.570;9.718;2024-02-16T12:24:44;19.70;99.90
11132;DHT22;5620;53.570;9.718;2024-02-16T12:27:10;19.30;98.50
11132;DHT22;5620;53.570;9.718;2024-02-16T12:29:36;18.90;99.30
11132;DHT22;5620;53.570;9.718;2024-02-16T12:32:01;18.50;99.90
11132;DHT22;5620;53.570;9.718;2024-02-16T12:34:27;18.10;99.90
11132;DHT22;5620;53.570;9.718;2024-02-16T12:36:52;17.70;99.90
11132;DHT22;5620;53.570;9.718;2024-02-16T12:39:18;17.40;99.90
11132;DHT22;5620;53.570;9.718;2024-02-16T12:41:43;17.20;99.90
11132;DHT22;5620;53.570;9.718;2024-02-16T12:44:09;16.90;99.90
11132;DHT22;5620;53.570;9.718;2024-02-16T12:46:34;16.70;99.90
11132;DHT22;5620;53.570;9.718;2024-02-16T12:49:01;16.60;99.90
11132;DHT22;5620;53.570;9.718;2024-02-16T12:51:26;16.60;99.90
11132;DHT22;5620;53.570;9.718;2024-02-16T12:53:52;16.50;99.90
11132;DHT22;5620;53.570;9.718;2024-02-16T12:56:17;16.30;99.90
11132;DHT22;5620;53.570;9.718;2024-02-16T12:58:43;16.20;99.90
11132;DHT22;5620;53.570;9.718;2024-02-16T13:01:08;15.90;99.90
11132;DHT22;5620;53.570;9.718;2024-02-16T13:03:35;15.40;99.90
11132;DHT22;5620;53.570;9.718;2024-02-16T13:06:01;14.80;99.90
11132;DHT22;5620;53.570;9.718;2024-02-16T13:08:27;14.40;1.00
11132;DHT22;5620;53.570;9.718;2024-02-16T13:10:53;14.10;99.90
11132;DHT22;5620;53.570;9.718;2024-02-16T13:13:19;14.00;99.90
11132;DHT22;5620;53.570;9.718;2024-02-16T13:15:44;13.90;1.00
11132;DHT22;5620;53.570;9.718;2024-02-16T13:18:10;13.90;1.00
11132;DHT22;5620;53.570;9.718;2024-02-16T13:20:35;13.90;40.20
11132;DHT22;5620;53.570;9.718;2024-02-16T13:23:01;14.00;99.90
11132;DHT22;5620;53.570;9.718;2024-02-16T13:25:26;14.30;99.90
11132;DHT22;5620;53.570;9.718;2024-02-16T13:27:52;14.60;1.00
11132;DHT22;5620;53.570;9.718;2024-02-16T13:30:18;14.70;1.00
11132;DHT22;5620;53.570;9.718;2024-02-16T13:32:43;14.70;1.00
11132;DHT22;5620;53.570;9.718;2024-02-16T13:35:09;14.80;1.00
11132;DHT22;5620;53.570;9.718;2024-02-16T13:37:34;14.80;1.00
11132;DHT22;5620;53.570;9.718;2024-02-16T13:40:00;14.90;1.00
11132;DHT22;5620;53.570;9.718;2024-02-16T13:42:25;14.90;1.00
11132;DHT22;5620;53.570;9.718;2024-02-16T13:44:51;14.90;1.00
11132;DHT22;5620;53.570;9.718;2024-02-16T13:47:16;14.90;1.00
11132;DHT22;5620;53.570;9.718;2024-02-16T13:49:42;15.00;1.00
11132;DHT22;5620;53.570;9.718;2024-02-16T13:52:08;15.00;1.00
11132;DHT22;5620;53.570;9.718;2024-02-16T13:54:34;15.00;1.00
11132;DHT22;5620;53.570;9.718;2024-02-16T13:57:00;15.00;1.00
11132;DHT22;5620;53.570;9.718;2024-02-16T13:59:25;15.00;1.00
11132;DHT22;5620;53.570;9.718;2024-02-16T14:01:51;15.00;1.00
11132;DHT22;5620;53.570;9.718;2024-02-16T14:04:17;15.00;1.00
11132;DHT22;5620;53.570;9.718;2024-02-16T14:06:42;15.00;1.00
11132;DHT22;5620;53.570;9.718;2024-02-16T14:09:08;15.10;1.00
11132;DHT22;5620;53.570;9.718;2024-02-16T14:11:37;15.10;1.00
11132;DHT22;5620;53.570;9.718;2024-02-16T14:14:02;15.20;1.00
11132;DHT22;5620;53.570;9.718;2024-02-16T14:16:28;15.30;1.00
11132;DHT22;5620;53.570;9.718;2024-02-16T14:18:53;15.30;1.00
11132;DHT22;5620;53.570;9.718;2024-02-16T14:21:19;15.40;1.00
11132;DHT22;5620;53.570;9.718;2024-02-16T14:23:45;15.40;1.00
11132;DHT22;5620;53.570;9.718;2024-02-16T14:26:10;15.40;99.90
11132;DHT22;5620;53.570;9.718;2024-02-16T14:28:36;15.20;99.90
11132;DHT22;5620;53.570;9.718;2024-02-16T14:31:01;15.00;99.90
11132;DHT22;5620;53.570;9.718;2024-02-16T14:33:27;14.90;99.90
11132;DHT22;5620;53.570;9.718;2024-02-16T14:35:52;14.80;99.90
11132;DHT22;5620;53.570;9.718;2024-02-16T14:38:18;14.70;1.00
11132;DHT22;5620;53.570;9.718;2024-02-16T14:40:43;14.60;1.00
11132;DHT22;5620;53.570;9.718;2024-02-16T14:43:09;14.60;1.00
11132;DHT22;5620;53.570;9.718;2024-02-16T14:45:34;14.50;1.00
11132;DHT22;5620;53.570;9.718;2024-02-16T14:48:00;14.50;1.00
11132;DHT22;5620;53.570;9.718;2024-02-16T14:50:25;14.50;1.00
11132;DHT22;5620;53.570;9.718;2024-02-16T14:52:51;14.40;65.40
11132;DHT22;5620;53.570;9.718;2024-02-16T14:55:16;14.50;71.10
11132;DHT22;5620;53.570;9.718;2024-02-16T14:57:43;14.40;99.90
11132;DHT22;5620;53.570;9.718;2024-02-16T15:00:12;14.30;99.90
11132;DHT22;5620;53.570;9.718;2024-02-16T15:02:38;14.20;99.90
11132;DHT22;5620;53.570;9.718;2024-02-16T15:05:05;14.00;1.00
11132;DHT22;5620;53.570;9.718;2024-02-16T15:07:31;13.80;53.40
11132;DHT22;5620;53.570;9.718;2024-02-16T15:09:56;13.60;99.90
11132;DHT22;5620;53.570;9.718;2024-02-16T15:12:22;13.50;34.30
11132;DHT22;5620;53.570;9.718;2024-02-16T15:14:47;13.40;1.00
11132;DHT22;5620;53.570;9.718;2024-02-16T15:17:13;13.40;35.70
11132;DHT22;5620;53.570;9.718;2024-02-16T15:19:39;13.50;61.40
11132;DHT22;5620;53.570;9.718;2024-02-16T15:22:05;13.60;48.20
11132;DHT22;5620;53.570;9.718;2024-02-16T15:24:30;13.60;1.00
11132;DHT22;5620;53.570;9.718;2024-02-16T15:26:56;13.70;1.00
11132;DHT22;5620;53.570;9.718;2024-02-16T15:29:21;13.60;1.00
11132;DHT22;5620;53.570;9.718;2024-02-16T15:31:47;13.60;1.00
11132;DHT22;5620;53.570;9.718;2024-02-16T15:34:12;13.60;13.80
11132;DHT22;5620;53.570;9.718;2024-02-16T15:36:38;13.60;99.90
11132;DHT22;5620;53.570;9.718;2024-02-16T15:39:03;13.60;99.90
11132;DHT22;5620;53.570;9.718;2024-02-16T15:41:29;13.60;99.90
11132;DHT22;5620;53.570;9.718;2024-02-16T15:43:54;13.60;99.90
11132;DHT22;5620;53.570;9.718;2024-02-16T15:46:20;13.60;99.90